Latest Weather Observations for Ngukurr AWS

IDD60801

Issued at 1:11 pm CST Sunday 16 December 2018 (issued every 10 minutes, with the page automatically refreshed every 10 minutes)

About weather observations | Map of weather stations | Latest weather observations for NT | Other Formats
Station Details ID: 014299 Name: NGUKURR AIRPORT Lat: -14.72 Lon: 134.75 Height: 14.46 m
Data from the previous 72 hours. | See also: Recent months at Ngukurr AWS
Date/Time
CST
Temp
°C
App
Temp
°C
Dew
Point
°C
Rel
Hum
%
Delta-T
°C
Wind Press
QNH
hPa
Press
MSL
hPa
Rain since
9am
mm
Dir  Spd
km/h
Gust
km/h
Spd
kts
Gust
kts
16/01:00pm 38.6 41.2 20.4 34 12.3 NW 7 19 4 10 1004.7 1004.6 0.0
16/12:30pm 38.3 41.6 21.5 38 11.5 WSW 6 13 3 7 1005.2 1005.1 0.0
16/12:00pm 37.6 40.5 21.7 39 10.9 W 9 19 5 10 1005.7 1005.6 0.0
16/11:30am 36.2 39.0 21.6 42 10.0 WNW 9 17 5 9 1005.9 1005.8 0.0
16/11:00am 36.2 39.1 22.4 45 9.5 W 11 17 6 9 1006.2 1006.1 0.0
16/10:30am 35.2 38.3 22.9 49 8.5 W 11 19 6 10 1006.3 1006.2 0.0
16/10:00am 34.4 38.5 24.0 54 7.3 W 9 19 5 10 1006.5 1006.4 0.0
16/09:30am 33.5 36.7 24.4 59 6.4 W 15 22 8 12 1006.8 1006.7 0.0
16/09:00am 33.0 36.8 24.7 61 5.9 W 13 24 7 13 1006.9 1006.8 0.0
16/08:30am 32.2 35.5 24.5 64 5.4 WNW 15 22 8 12 1006.9 1006.8 0.0
16/08:00am 31.5 35.6 24.6 67 4.8 WNW 11 17 6 9 1006.9 1006.8 0.0
16/07:30am 30.4 35.2 24.5 70 4.1 NW 7 13 4 7 1006.6 1006.5 0.0
16/07:00am 29.7 34.3 24.1 72 3.9 NNW 7 9 4 5 1006.3 1006.2 0.0
16/06:30am 29.1 34.9 24.0 74 3.5 CALM 0 6 0 3 1006.1 1006.0 0.0
16/06:00am 28.8 33.7 23.7 74 3.5 NW 4 6 2 3 1005.7 1005.6 0.0
16/05:30am 29.1 33.5 23.5 72 3.9 WNW 6 11 3 6 1005.5 1005.4 0.0
16/05:00am 29.2 33.6 23.4 71 4.0 NW 6 9 3 5 1004.8 1004.7 0.0
16/04:30am 29.4 33.6 23.1 69 4.3 NW 6 9 3 5 1004.5 1004.4 0.0
16/04:00am 29.8 33.9 23.3 68 4.5 NNW 7 11 4 6 1004.0 1003.9 0.0
16/03:30am 29.8 33.7 23.0 67 4.7 N 7 13 4 7 1003.8 1003.7 0.0
16/03:00am 29.9 33.8 22.9 66 4.8 NNW 7 11 4 6 1003.6 1003.5 0.0
16/02:30am 29.8 34.2 22.8 66 4.8 N 4 7 2 4 1003.7 1003.6 0.0
16/02:00am 29.9 33.2 22.6 65 5.0 N 9 13 5 7 1003.6 1003.5 0.0
16/01:30am 30.0 33.4 22.7 65 5.0 N 9 15 5 8 1003.9 1003.8 0.0
16/01:00am 29.8 33.9 23.0 67 4.7 N 6 7 3 4 1004.2 1004.1 0.0
16/12:30am 29.6 34.0 22.8 67 4.7 NNW 4 7 2 4 1004.9 1004.8 0.0
16/12:00am 29.5 34.1 22.5 66 4.8 NNW 2 4 1 2 1005.2 1005.1 0.0
 
Date/Time
CST
Temp
°C
App
Temp
°C
Dew
Point
°C
Rel
Hum
%
Delta-T
°C
Wind Press
QNH
hPa
Press
MSL
hPa
Rain since
9am
mm
Dir  Spd
km/h
Gust
km/h
Spd
kts
Gust
kts
15/11:30pm 29.5 34.0 22.2 65 5.0 NNE 2 4 1 2 1005.1 1005.0 0.0
15/11:00pm 29.6 33.5 21.8 63 5.3 N 4 6 2 3 1005.3 1005.2 0.0
15/10:30pm 29.9 33.3 21.6 61 5.6 N 6 9 3 5 1005.0 1004.9 0.0
15/10:00pm 30.2 33.6 21.0 58 6.1 NNE 4 7 2 4 1004.3 1004.2 0.0
15/09:30pm 30.6 33.6 20.8 56 6.5 N 6 7 3 4 1004.5 1004.4 0.0
15/09:00pm 31.1 34.0 20.7 54 6.9 N 6 7 3 4 1004.6 1004.5 0.0
15/08:30pm 31.5 34.5 20.8 53 7.2 NNE 6 9 3 5 1004.2 1004.1 0.0
15/08:00pm 31.9 35.2 22.6 58 6.4 NNE 9 13 5 7 1003.9 1003.8 0.0
15/07:30pm 32.4 35.9 23.6 59 6.1 NNE 11 15 6 8 1003.9 1003.8 0.0
15/07:00pm 33.1 36.7 23.7 57 6.5 NNE 11 19 6 10 1003.5 1003.4 0.0
15/06:30pm 34.9 39.9 24.8 55 7.2 NNE 7 24 4 13 1002.9 1002.8 0.0
15/06:00pm 36.8 39.9 21.4 41 10.5 W 7 13 4 7 1002.4 1002.3 0.0
15/05:30pm 37.2 39.5 21.3 39 10.9 WSW 11 17 6 9 1002.0 1001.9 0.0
15/05:00pm 37.0 39.8 21.6 41 10.5 W 9 20 5 11 1001.9 1001.8 0.0
15/04:30pm 36.8 39.3 21.8 42 10.3 SW 11 20 6 11 1001.9 1001.8 0.0
15/04:00pm 37.2 39.7 21.7 40 10.6 WSW 11 15 6 8 1002.1 1002.0 0.0
15/03:30pm 37.1 39.5 20.8 38 11.1 WNW 9 15 5 8 1002.2 1002.1 0.0
15/03:00pm 37.7 41.0 21.4 39 11.2 NNW 6 15 3 8 1002.5 1002.4 0.0
15/02:30pm 37.1 39.3 21.2 39 10.9 WNW 11 17 6 9 1002.7 1002.6 0.0
15/02:00pm 36.5 39.3 21.5 41 10.2 N 9 19 5 10 1003.1 1003.0 0.0
15/01:30pm 36.3 39.3 21.3 41 10.2 NNW 7 13 4 7 1003.6 1003.5 0.0
15/01:00pm 35.5 38.9 21.7 44 9.4 WNW 6 13 3 7 1004.4 1004.3 0.0
15/12:30pm 35.1 39.1 22.8 49 8.5 W 6 9 3 5 1004.8 1004.7 0.0
15/12:00pm 34.4 38.4 22.8 51 8.0 WSW 6 13 3 7 1005.3 1005.2 0.0
15/11:30am 33.7 37.5 22.8 53 7.5 NNW 7 13 4 7 1005.9 1005.8 0.0
15/11:00am 33.3 37.1 22.7 53 7.3 ENE 7 11 4 6 1006.4 1006.3 0.0
15/10:30am 33.1 36.9 22.8 54 7.1 E 7 13 4 7 1006.8 1006.7 0.0
15/10:00am 31.8 36.0 23.1 60 6.0 ENE 6 13 3 7 1006.9 1006.8 0.0
15/09:30am 31.2 35.6 22.8 61 5.8 ENE 4 6 2 3 1007.0 1006.9 0.0
15/09:00am 30.4 35.6 22.8 64 5.2 CALM 0 0 0 0 1007.0 1006.9 0.2
15/08:30am 29.9 34.5 23.1 67 4.7 SE 4 6 2 3 1006.8 1006.7 0.2
15/08:00am 29.1 33.3 23.1 70 4.1 WSW 6 9 3 5 1006.5 1006.4 0.2
15/07:30am 28.4 33.9 24.6 80 2.7 W 4 6 2 3 1006.3 1006.2 0.2
15/07:00am 27.5 33.3 25.1 87 1.7 NNW 4 6 2 3 1006.0 1005.9 0.2
15/06:30am 27.0 32.8 25.2 90 1.3 WSW 4 7 2 4 1005.8 1005.7 0.2
15/06:00am 26.6 32.9 24.8 90 1.3 CALM 0 0 0 0 1005.5 1005.4 0.2
15/05:30am 26.8 32.8 24.8 89 1.4 NNW 2 6 1 3 1005.2 1005.1 0.2
15/05:00am 26.8 31.7 24.6 88 1.5 WNW 7 11 4 6 1005.0 1004.9 0.2
15/04:30am 26.7 32.8 24.5 88 1.5 CALM 0 6 0 3 1004.4 1004.3 0.2
15/04:00am 26.8 32.3 24.1 85 1.9 ENE 2 7 1 4 1003.7 1003.6 0.2
15/03:30am 26.9 32.1 23.6 82 2.3 NNE 2 6 1 3 1003.7 1003.6 0.2
15/03:00am 27.0 32.5 24.1 84 2.0 W 2 6 1 3 1004.3 1004.2 0.2
15/02:30am 26.7 31.3 23.8 84 2.0 N 6 9 3 5 1004.6 1004.5 0.2
15/02:00am 26.9 30.8 23.6 82 2.3 N 9 19 5 10 1004.3 1004.2 0.2
15/01:30am 27.9 32.2 23.3 76 3.2 N 6 7 3 4 1004.6 1004.5 0.2
15/01:00am 28.1 33.0 23.0 74 3.5 W 2 6 1 3 1004.3 1004.2 0.2
15/12:30am 27.9 30.6 22.8 74 3.5 SSW 13 20 7 11 1004.7 1004.6 0.2
15/12:00am 27.5 31.1 22.4 73 3.5 E 7 13 4 7 1003.9 1003.8 0.2
 
Date/Time
CST
Temp
°C
App
Temp
°C
Dew
Point
°C
Rel
Hum
%
Delta-T
°C
Wind Press
QNH
hPa
Press
MSL
hPa
Rain since
9am
mm
Dir  Spd
km/h
Gust
km/h
Spd
kts
Gust
kts
14/11:30pm 28.0 31.9 22.9 74 3.5 NE 7 13 4 7 1003.8 1003.7 0.2
14/11:00pm 27.9 31.4 23.5 77 3.0 ENE 11 22 6 12 1004.5 1004.4 0.2
14/10:30pm 27.6 29.5 23.4 78 2.9 ENE 19 32 10 17 1004.4 1004.3 0.2
14/10:00pm 31.0 30.8 22.0 58 6.1 SE 26 41 14 22 1003.8 1003.7 0.2
14/09:30pm 33.6 37.8 22.4 52 7.7 NW 4 6 2 3 1002.8 1002.7 0.2
14/09:00pm 34.0 37.5 21.8 49 8.3 WNW 6 11 3 6 1002.2 1002.1 0.2
14/08:30pm 34.1 37.8 22.2 50 8.2 NW 6 7 3 4 1002.0 1001.9 0.2
14/08:00pm 34.7 37.8 21.4 46 9.0 WNW 7 9 4 5 1001.8 1001.7 0.2
14/07:30pm 35.0 38.2 21.3 45 9.3 NW 6 9 3 5 1001.3 1001.2 0.2
14/07:00pm 35.6 38.9 21.5 44 9.6 WNW 6 6 3 3 1001.0 1000.9 0.2
14/06:30pm 36.4 38.9 20.2 38 10.9 WNW 7 13 4 7 1000.5 1000.4 0.2
14/06:00pm 37.0 39.5 20.3 37 11.3 WNW 7 11 4 6 1000.4 1000.3 0.2
14/05:30pm 37.8 40.2 19.7 34 12.2 W 6 11 3 6 1000.3 1000.2 0.2
14/05:00pm 37.5 40.2 19.4 34 12.1 NW 4 7 2 4 1000.1 1000.0 0.2
14/04:30pm 37.9 40.1 19.3 33 12.4 WNW 6 15 3 8 1000.2 1000.1 0.2
14/04:00pm 37.4 39.1 19.3 34 12.0 W 9 15 5 8 1000.3 1000.2 0.2
14/03:30pm 37.5 40.5 20.8 38 11.4 W 6 19 3 10 1000.4 1000.3 0.2
14/03:00pm 37.4 39.5 20.2 36 11.6 WSW 9 17 5 9 1000.7 1000.6 0.2
14/02:30pm 36.8 39.9 21.0 40 10.8 W 6 9 3 5 1001.1 1001.0 0.2
14/02:00pm 36.7 38.2 20.5 39 10.9 W 13 22 7 12 1001.6 1001.5 0.2
14/01:30pm 37.0 40.0 21.2 40 10.8 S 7 24 4 13 1002.0 1001.9 0.2
14/01:00pm 36.4 37.9 19.8 37 11.1 WSW 11 22 6 12 1002.4 1002.3 0.2
14/12:30pm 35.4 37.7 21.3 44 9.6 SW 11 20 6 11 1002.7 1002.6 0.2
14/12:00pm 34.8 37.2 21.5 46 9.1 SW 11 22 6 12 1003.0 1002.9 0.2
14/11:30am 34.2 37.5 22.6 50 8.0 SSW 9 15 5 8 1003.6 1003.5 0.2
14/11:00am 33.2 37.8 24.1 59 6.4 SW 7 15 4 8 1004.1 1004.0 0.2
14/10:30am 32.0 36.3 24.3 63 5.4 SSW 9 13 5 7 1004.7 1004.6 0.2
14/10:00am 30.9 35.5 24.1 67 4.7 SSW 7 15 4 8 1005.1 1005.0 0.2
14/09:30am 30.7 35.0 23.6 66 4.9 WSW 7 15 4 8 1005.0 1004.9 0.2
14/09:00am 30.1 34.9 24.5 72 3.9 W 7 13 4 7 1005.1 1005.0 3.2
14/08:30am 29.3 33.5 24.8 77 3.2 W 11 19 6 10 1004.7 1004.6 3.2
14/08:00am 27.8 32.5 25.0 85 2.0 W 9 13 5 7 1004.6 1004.5 3.2
14/07:30am 27.0 32.7 25.6 92 1.0 W 6 11 3 6 1004.7 1004.6 3.2
14/07:00am 26.1 32.3 25.8 98 0.2 WNW 4 7 2 4 1004.5 1004.4 3.2
14/06:30am 25.5 30.9 25.2 98 0.2 WNW 6 9 3 5 1004.5 1004.4 3.2
14/06:00am 25.5 31.7 25.2 98 0.2 WNW 2 6 1 3 1004.7 1004.6 3.2
14/05:30am 25.4 31.9 25.1 98 0.2 CALM 0 2 0 1 1004.7 1004.6 3.2
14/05:00am 25.4 30.8 25.1 98 0.2 W 6 7 3 4 1003.7 1003.6 3.2
14/04:30am 25.3 31.0 25.0 98 0.2 W 4 6 2 3 1003.2 1003.1 3.2
14/04:00am 25.3 31.1 25.1 99 0.1 WNW 4 7 2 4 1002.9 1002.8 3.2
14/03:30am 25.5 31.4 25.3 99 0.1 WNW 4 6 2 3 1002.9 1002.8 3.2
14/03:00am 25.7 32.1 25.5 99 0.1 WSW 2 6 1 3 1002.7 1002.6 3.2
14/02:30am 25.7 32.1 25.5 99 0.1 W 2 2 1 1 1002.5 1002.4 3.2
14/02:00am 25.7 32.4 25.4 98 0.2 CALM 0 0 0 0 1002.6 1002.5 3.2
14/01:30am 25.9 32.7 25.6 98 0.2 CALM 0 4 0 2 1002.9 1002.8 3.2
14/01:00am 25.9 32.7 25.6 98 0.2 CALM 0 4 0 2 1003.2 1003.1 3.2
14/12:30am 26.0 32.9 25.7 98 0.2 CALM 0 0 0 0 1003.2 1003.1 3.2
14/12:00am 26.1 31.9 25.8 98 0.2 SW 6 7 3 4 1003.0 1002.9 3.2
 
Date/Time
CST
Temp
°C
App
Temp
°C
Dew
Point
°C
Rel
Hum
%
Delta-T
°C
Wind Press
QNH
hPa
Press
MSL
hPa
Rain since
9am
mm
Dir  Spd
km/h
Gust
km/h
Spd
kts
Gust
kts
13/11:30pm 26.1 33.1 25.8 98 0.2 CALM 0 0 0 0 1003.1 1003.0 3.2
13/11:00pm 26.3 32.6 24.7 91 1.1 CALM 0 0 0 0 1003.8 1003.7 3.2
13/10:30pm 26.5 31.4 24.7 90 1.3 W 7 11 4 6 1004.3 1004.2 3.2
13/10:00pm 26.6 30.6 24.4 88 1.5 W 11 17 6 9 1003.8 1003.7 3.2
13/09:30pm 26.8 31.7 24.3 86 1.7 WSW 6 11 3 6 1003.8 1003.7 3.2
13/09:00pm 27.0 31.9 24.3 85 1.9 WSW 6 9 3 5 1003.6 1003.5 3.2
13/08:30pm 27.1 31.9 24.2 84 2.0 WNW 6 9 3 5 1003.2 1003.1 3.2
13/08:00pm 27.2 31.4 24.1 83 2.1 W 9 15 5 8 1002.5 1002.4 3.2
13/07:30pm 27.4 32.0 24.1 82 2.3 W 7 13 4 7 1002.6 1002.5 3.2
13/07:00pm 27.3 31.8 24.0 82 2.3 WNW 7 13 4 7 1002.4 1002.3 3.2
13/06:30pm 27.3 31.9 24.2 83 2.2 WNW 7 9 4 5 1002.2 1002.1 3.2
13/06:00pm 27.5 31.7 24.1 82 2.4 W 9 17 5 9 1002.3 1002.2 3.2
13/05:30pm 27.6 31.7 24.6 84 2.1 W 11 17 6 9 1002.4 1002.3 3.2
13/05:00pm 27.7 31.5 24.1 81 2.5 W 11 19 6 10 1001.8 1001.7 3.2
13/04:30pm 28.4 33.3 25.2 83 2.3 W 9 15 5 8 1002.2 1002.1 3.2
13/04:00pm 28.0 34.3 27.3 96 0.5 WSW 9 13 5 7 1002.7 1002.6 3.2
13/03:30pm 27.0 32.8 25.8 93 0.8 SSW 6 7 3 4 1002.1 1002.0 3.2
13/03:00pm 31.0 34.9 23.6 64 5.1 S 9 19 5 10 1002.4 1002.3 0.0
13/02:30pm 30.9 35.1 23.5 64 5.1 SSW 7 13 4 7 1002.1 1002.0 0.0
13/02:00pm 30.5 34.6 23.2 65 5.0 WSW 7 15 4 8 1002.2 1002.1 0.0
13/01:30pm 30.4 33.1 22.8 64 5.2 W 13 24 7 13 1002.1 1002.0 0.0

Other Formats:

Comma delimited format used in spreadsheet applications
http://www.bom.gov.au/fwo/IDD60801/IDD60801.94106.axf

JavaScript Object Notation format (JSON) in row-major order
http://www.bom.gov.au/fwo/IDD60801/IDD60801.94106.json